Time;durP1;ratioP1;P1;durP2;ratioP2;P2;SDS_P1;SDS_P2;PMS_P1;PMS_P2;Temp;Humidity;BMP_temperature;BMP_pressure;BME280_temperature;BME280_humidity;BME280_pressure;Samples;Min_cycle;Max_cycle;Signal;HPM_P1;HPM_P2
2024/01/13 00:00:42;;;;;;;26.67;18.98;;;;;;;-2.33;100.00;101037.84;5608169;31;34837;-68
2024/01/13 00:03:45;;;;;;;6.65;4.07;;;;;;;-2.32;100.00;101029.97;5607654;31;35068;-67
2024/01/13 00:06:48;;;;;;;25.90;19.62;;;;;;;-2.33;100.00;101028.28;5608288;31;34271;-69
2024/01/13 00:09:51;;;;;;;6.45;3.45;;;;;;;-2.34;100.00;101025.75;5608133;31;34409;-69
2024/01/13 00:12:54;;;;;;;24.12;18.23;;;;;;;-2.41;100.00;101030.37;5608399;31;34378;-68
2024/01/13 00:15:57;;;;;;;6.15;3.72;;;;;;;-2.38;100.00;101034.63;5607892;31;35088;-69
2024/01/13 00:19:01;;;;;;;29.17;19.75;;;;;;;-2.39;100.00;101027.72;5607797;31;34545;-69
2024/01/13 00:22:04;;;;;;;12.18;4.78;;;;;;;-2.52;100.00;101037.00;5607927;31;35027;-69
2024/01/13 00:25:06;;;;;;;24.20;18.65;;;;;;;-2.51;100.00;101033.47;5607851;31;34469;-69
2024/01/13 00:28:10;;;;;;;7.30;4.25;;;;;;;-2.42;100.00;101027.88;5607773;31;34407;-68
2024/01/13 00:31:17;;;;;;;24.80;19.37;;;;;;;-2.38;100.00;101035.47;5608200;31;35905;-69
2024/01/13 00:34:20;;;;;;;10.32;4.70;;;;;;;-2.30;100.00;101045.50;5607847;31;35002;-69
2024/01/13 00:37:23;;;;;;;24.02;18.52;;;;;;;-2.36;100.00;101051.81;5607804;31;34625;-69
2024/01/13 00:40:26;;;;;;;23.77;18.80;;;;;;;-2.35;100.00;101052.66;5607745;31;34362;-69
2024/01/13 00:43:29;;;;;;;23.95;18.75;;;;;;;-2.40;100.00;101036.41;5607664;31;34318;-69
2024/01/13 00:46:32;;;;;;;6.00;2.75;;;;;;;-2.40;100.00;101032.06;5607533;31;34964;-69
2024/01/13 00:49:35;;;;;;;23.38;18.25;;;;;;;-2.39;100.00;101033.75;5607464;31;34357;-69
2024/01/13 00:52:38;;;;;;;23.33;17.85;;;;;;;-2.38;100.00;101042.41;5607399;31;35761;-69
2024/01/13 00:55:42;;;;;;;7.35;2.83;;;;;;;-2.33;100.00;101046.47;5606963;31;34283;-69
2024/01/13 00:58:45;;;;;;;26.17;15.75;;;;;;;-2.35;100.00;101048.31;5607370;31;34334;-69
2024/01/13 01:01:48;;;;;;;3.25;2.17;;;;;;;-2.27;100.00;101040.97;5607335;31;34441;-69
2024/01/13 01:04:52;;;;;;;20.45;15.98;;;;;;;-2.29;100.00;101042.81;5607561;31;34340;-69
2024/01/13 01:07:54;;;;;;;21.73;16.12;;;;;;;-2.35;100.00;101048.31;5607090;31;34449;-70
2024/01/13 01:11:01;;;;;;;10.20;3.22;;;;;;;-2.36;100.00;101046.59;5607228;31;34375;-69
2024/01/13 01:14:04;;;;;;;19.67;15.45;;;;;;;-2.31;100.00;101039.44;5608995;31;35435;-70
2024/01/13 01:17:07;;;;;;;19.12;15.35;;;;;;;-2.28;100.00;101046.28;5609887;31;34368;-69
2024/01/13 01:20:11;;;;;;;19.65;15.40;;;;;;;-2.29;100.00;101045.44;5609608;31;34377;-69
2024/01/13 01:23:14;;;;;;;6.18;3.12;;;;;;;-2.25;100.00;101040.94;5609675;31;34316;-68
2024/01/13 01:26:17;;;;;;;18.50;15.15;;;;;;;-2.33;100.00;101050.84;5609461;31;34372;-69
2024/01/13 01:29:20;;;;;;;6.40;2.62;;;;;;;-2.38;100.00;101034.63;5609641;31;34250;-69
2024/01/13 01:32:23;;;;;;;19.40;14.32;;;;;;;-2.42;100.00;101025.28;5609653;31;34396;-69
2024/01/13 01:35:26;;;;;;;19.15;14.02;;;;;;;-2.46;100.00;101023.69;5609844;31;34339;-68
2024/01/13 01:38:29;;;;;;;17.37;13.85;;;;;;;-2.50;100.00;101019.56;5609567;31;34975;-68
2024/01/13 01:41:45;;;;;;;6.87;3.22;;;;;;;-2.28;100.00;101009.91;5609392;31;35855;-68
2024/01/13 01:44:47;;;;;;;16.45;13.10;;;;;;;-2.33;100.00;101001.47;5609555;31;34393;-68
2024/01/13 01:47:52;;;;;;;17.25;12.07;;;;;;;-2.18;100.00;101000.75;5609512;31;34354;-70
2024/01/13 01:50:55;;;;;;;15.75;12.45;;;;;;;-2.12;100.00;101005.63;5609418;31;34946;-68
2024/01/13 01:54:00;;;;;;;4.93;2.80;;;;;;;-2.01;100.00;100995.59;5609526;31;35034;-69
2024/01/13 01:57:03;;;;;;;16.42;12.88;;;;;;;-2.08;100.00;100988.97;5609511;31;34302;-69
2024/01/13 02:00:09;;;;;;;14.50;11.85;;;;;;;-2.04;100.00;100976.69;5609306;31;34318;-69
2024/01/13 02:03:13;;;;;;;15.40;12.13;;;;;;;-2.03;100.00;100955.00;5609313;31;34429;-68
2024/01/13 02:06:17;;;;;;;14.65;11.82;;;;;;;-2.02;100.00;100952.31;5609163;31;35063;-69
2024/01/13 02:09:20;;;;;;;15.23;11.30;;;;;;;-1.99;100.00;100952.16;5608574;31;35059;-69
2024/01/13 02:12:23;;;;;;;13.27;10.88;;;;;;;-1.87;100.00;100948.97;5609153;31;35186;-68
2024/01/13 02:15:25;;;;;;;6.30;2.55;;;;;;;-1.77;100.00;100958.00;5609028;31;34243;-69
2024/01/13 02:18:28;;;;;;;14.55;11.43;;;;;;;-1.79;100.00;100951.16;5609082;31;34487;-69
2024/01/13 02:21:41;;;;;;;13.30;11.20;;;;;;;-1.84;100.00;100942.78;5609208;31;34385;-68
2024/01/13 02:24:45;;;;;;;13.52;10.57;;;;;;;-1.89;100.00;100944.75;5608562;31;34432;-68
2024/01/13 02:27:48;;;;;;;13.30;10.75;;;;;;;-1.81;100.00;100948.66;5609413;31;35287;-69
2024/01/13 02:30:51;;;;;;;15.70;11.05;;;;;;;-1.84;100.00;100948.78;5609177;31;34919;-68
2024/01/13 02:33:54;;;;;;;13.18;10.77;;;;;;;-1.86;100.00;100950.66;5609015;31;34936;-69
2024/01/13 02:36:58;;;;;;;12.27;9.88;;;;;;;-1.81;100.00;100943.47;5609090;31;34317;-68
2024/01/13 02:40:01;;;;;;;15.23;10.68;;;;;;;-1.82;100.00;100938.34;5609002;31;34536;-68
2024/01/13 02:43:04;;;;;;;13.65;10.88;;;;;;;-1.85;100.00;100944.53;5608980;31;34354;-68
2024/01/13 02:46:07;;;;;;;13.15;10.38;;;;;;;-1.93;100.00;100935.41;5609046;31;35008;-68
2024/01/13 02:49:11;;;;;;;7.22;2.85;;;;;;;-1.91;100.00;100942.22;5595093;31;35092;-67
2024/01/13 02:52:14;;;;;;;15.30;10.70;;;;;;;-1.86;100.00;100940.25;5608492;31;34265;-69
2024/01/13 02:55:17;;;;;;;13.52;10.32;;;;;;;-1.95;100.00;100945.06;5608959;31;34327;-69
2024/01/13 02:58:20;;;;;;;13.65;9.63;;;;;;;-1.87;100.00;100940.31;5609292;31;34310;-68
2024/01/13 03:01:41;;;;;;;15.77;10.73;;;;;;;-1.87;100.00;100937.72;5608932;31;32948;-68
2024/01/13 03:04:44;;;;;;;3.60;2.20;;;;;;;-1.77;100.00;100928.53;5608918;31;35071;-68
2024/01/13 03:07:47;;;;;;;15.57;10.55;;;;;;;-1.71;100.00;100917.00;5608925;31;34285;-68
2024/01/13 03:10:50;;;;;;;14.55;10.48;;;;;;;-1.80;100.00;100918.31;5608737;31;34894;-69
2024/01/13 03:13:54;;;;;;;3.45;1.40;;;;;;;-1.80;100.00;100900.94;5608628;31;34263;-68
2024/01/13 03:16:57;;;;;;;13.23;10.23;;;;;;;-1.76;100.00;100889.47;5608664;31;35041;-68
2024/01/13 03:20:00;;;;;;;13.13;10.68;;;;;;;-1.77;100.00;100900.78;5608591;31;34424;-69
2024/01/13 03:23:03;;;;;;;12.73;9.82;;;;;;;-1.76;100.00;100894.66;5608741;31;34503;-68
2024/01/13 03:26:06;;;;;;;13.48;10.65;;;;;;;-1.69;100.00;100886.56;5608645;31;35235;-68
2024/01/13 03:29:09;;;;;;;4.25;2.50;;;;;;;-1.78;100.00;100891.28;5608712;31;34430;-68
2024/01/13 03:32:12;;;;;;;16.37;11.20;;;;;;;-1.77;100.00;100905.97;5608607;31;35059;-68
2024/01/13 03:35:14;;;;;;;13.70;10.85;;;;;;;-1.77;100.00;100894.72;5608682;31;34380;-68
2024/01/13 03:38:17;;;;;;;16.12;11.35;;;;;;;-1.80;100.00;100890.53;5608521;31;35089;-67
2024/01/13 03:41:36;;;;;;;3.03;1.95;;;;;;;-1.81;100.00;100901.84;5608473;31;34439;-68
2024/01/13 03:44:40;;;;;;;14.77;10.80;;;;;;;-1.79;100.00;100884.41;5607705;31;34366;-68
2024/01/13 03:47:44;;;;;;;20.67;11.05;;;;;;;-1.67;100.00;100887.31;5608262;31;34355;-68
2024/01/13 03:50:47;;;;;;;14.77;11.35;;;;;;;-1.59;100.00;100882.53;5608398;31;34269;-68
2024/01/13 03:53:50;;;;;;;15.15;11.80;;;;;;;-1.62;100.00;100885.31;5607634;31;34589;-69
2024/01/13 03:56:53;;;;;;;16.40;12.05;;;;;;;-1.66;100.00;100878.59;5608695;31;34840;-68
2024/01/13 03:59:56;;;;;;;15.15;12.00;;;;;;;-1.69;100.00;100882.16;5608270;31;34495;-69
2024/01/13 04:02:59;;;;;;;17.25;12.30;;;;;;;-1.74;100.00;100876.38;5608270;31;34294;-69
2024/01/13 04:06:02;;;;;;;3.25;1.80;;;;;;;-1.72;100.00;100876.28;5608253;31;34290;-69
2024/01/13 04:09:08;;;;;;;17.25;12.93;;;;;;;-1.72;100.00;100882.34;5608319;31;34955;-68
2024/01/13 04:12:11;;;;;;;15.65;12.63;;;;;;;-1.81;100.00;100877.59;5608150;31;34563;-68
2024/01/13 04:15:14;;;;;;;15.80;12.82;;;;;;;-1.79;100.00;100857.53;5608108;31;35020;-68
2024/01/13 04:18:17;;;;;;;15.38;12.90;;;;;;;-1.82;100.00;100855.13;5603035;31;153880;-68
2024/01/13 04:21:21;;;;;;;4.03;2.10;;;;;;;-1.78;100.00;100856.63;5608112;31;35689;-68
2024/01/13 04:24:25;;;;;;;16.08;13.90;;;;;;;-1.81;100.00;100865.44;5608399;31;34288;-69
2024/01/13 04:27:28;;;;;;;14.05;5.85;;;;;;;-1.86;100.00;100858.78;5607991;31;34302;-69
2024/01/13 04:30:31;;;;;;;17.23;14.55;;;;;;;-1.86;100.00;100870.03;5607935;31;35044;-69
2024/01/13 04:33:35;;;;;;;18.05;14.75;;;;;;;-2.02;100.00;100863.91;5607964;31;35048;-68
2024/01/13 04:36:38;;;;;;;17.67;14.60;;;;;;;-1.91;100.00;100865.97;5607810;31;34456;-69
2024/01/13 04:39:41;;;;;;;21.05;15.57;;;;;;;-1.95;100.00;100861.84;5607779;31;34403;-69
2024/01/13 04:42:44;;;;;;;20.00;15.93;;;;;;;-1.88;100.00;100860.63;5607758;31;35146;-69
2024/01/13 04:45:47;;;;;;;8.45;4.03;;;;;;;-1.97;100.00;100866.28;5606868;31;35027;-69
2024/01/13 04:48:50;;;;;;;19.90;16.37;;;;;;;-1.96;100.00;100861.00;5609246;31;35786;-69
2024/01/13 04:51:53;;;;;;;18.95;16.00;;;;;;;-1.81;100.00;100862.84;5610200;31;34512;-69
2024/01/13 04:54:56;;;;;;;19.58;16.00;;;;;;;-1.86;100.00;100869.19;5610515;31;34669;-69
2024/01/13 04:57:59;;;;;;;19.25;16.27;;;;;;;-1.94;100.00;100851.38;5610403;31;34410;-69
2024/01/13 05:01:02;;;;;;;18.10;14.80;;;;;;;-1.96;100.00;100868.81;5610018;31;35038;-69
2024/01/13 05:04:04;;;;;;;18.70;15.05;;;;;;;-1.85;100.00;100865.69;5610113;31;35083;-68
2024/01/13 05:07:07;;;;;;;19.33;15.57;;;;;;;-1.74;100.00;100857.34;5609875;31;35281;-68
2024/01/13 05:10:11;;;;;;;18.85;15.05;;;;;;;-1.69;100.00;100848.34;5609911;31;34318;-68
2024/01/13 05:13:14;;;;;;;19.60;15.63;;;;;;;-1.69;100.00;100855.34;5609930;31;34408;-69
2024/01/13 05:16:17;;;;;;;21.62;16.00;;;;;;;-1.65;100.00;100869.88;5609718;31;34567;-68
2024/01/13 05:19:20;;;;;;;19.55;16.23;;;;;;;-1.61;100.00;100855.78;5609658;31;33962;-68
2024/01/13 05:22:23;;;;;;;8.85;2.97;;;;;;;-1.64;100.00;100861.13;5609841;31;34420;-68
2024/01/13 05:25:26;;;;;;;20.08;16.10;;;;;;;-1.64;100.00;100864.56;5609853;31;35116;-68
2024/01/13 05:28:29;;;;;;;21.42;16.77;;;;;;;-1.71;100.00;100864.97;5608962;31;35000;-68
2024/01/13 05:31:32;;;;;;;21.40;17.08;;;;;;;-1.80;100.00;100871.50;5609783;31;34239;-68
2024/01/13 05:34:35;;;;;;;22.45;16.67;;;;;;;-1.80;100.00;100861.09;5609696;31;34474;-68
2024/01/13 05:37:38;;;;;;;9.68;4.65;;;;;;;-1.82;100.00;100866.34;5609891;31;34262;-69
2024/01/13 05:40:44;;;;;;;23.15;17.37;;;;;;;-1.82;100.00;100865.50;5609647;31;35037;-68
2024/01/13 05:43:47;;;;;;;21.10;17.08;;;;;;;-1.78;100.00;100867.87;5609639;31;34300;-68
2024/01/13 05:46:51;;;;;;;25.90;18.67;;;;;;;-1.85;100.00;100876.94;5609578;31;34212;-68
2024/01/13 05:49:54;;;;;;;22.05;18.27;;;;;;;-1.88;100.00;100873.63;5609548;31;34310;-69
2024/01/13 05:52:57;;;;;;;22.48;18.08;;;;;;;-1.97;100.00;100864.53;5609355;31;35538;-69
2024/01/13 05:56:00;;;;;;;23.08;17.83;;;;;;;-2.06;100.00;100870.19;5609807;31;34269;-69
2024/01/13 05:59:03;;;;;;;21.08;16.25;;;;;;;-1.96;100.00;100884.41;5608706;31;34379;-69
2024/01/13 06:02:06;;;;;;;4.40;2.37;;;;;;;-1.84;100.00;100862.97;5609184;31;34604;-69
2024/01/13 06:05:09;;;;;;;21.42;16.15;;;;;;;-1.84;100.00;100865.59;5609493;31;34945;-68
2024/01/13 06:08:12;;;;;;;22.20;17.00;;;;;;;-1.77;100.00;100855.72;5608494;31;34475;-68
2024/01/13 06:11:15;;;;;;;21.25;17.27;;;;;;;-1.73;100.00;100857.25;5609328;31;34901;-69
2024/01/13 06:14:18;;;;;;;21.50;16.87;;;;;;;-1.62;100.00;100854.94;5609139;31;34346;-67
2024/01/13 06:17:21;;;;;;;10.93;5.12;;;;;;;-1.60;100.00;100849.66;5609355;31;34272;-68
2024/01/13 06:20:24;;;;;;;21.77;16.65;;;;;;;-1.63;100.00;100842.00;5609500;31;35182;-68
2024/01/13 06:23:27;;;;;;;21.40;16.45;;;;;;;-1.69;100.00;100853.56;5609233;31;34969;-69
2024/01/13 06:26:30;;;;;;;20.75;16.42;;;;;;;-1.66;100.00;100847.37;5609173;31;34865;-69
2024/01/13 06:29:33;;;;;;;6.07;3.42;;;;;;;-1.74;100.00;100858.16;5609497;31;34486;-68
2024/01/13 06:32:36;;;;;;;21.40;16.20;;;;;;;-1.65;100.00;100860.31;5609059;31;34472;-68
2024/01/13 06:35:39;;;;;;;10.07;3.87;;;;;;;-1.63;100.00;100863.66;5609033;31;35059;-69
2024/01/13 06:38:42;;;;;;;20.00;15.80;;;;;;;-1.62;100.00;100864.50;5608913;31;34255;-69
2024/01/13 06:41:45;;;;;;;20.37;15.70;;;;;;;-1.51;100.00;100870.84;5608957;31;34319;-69
2024/01/13 06:44:49;;;;;;;20.95;16.08;;;;;;;-1.42;100.00;100861.72;5608786;31;34325;-69
2024/01/13 06:47:52;;;;;;;19.08;14.87;;;;;;;-1.35;100.00;100857.84;5608708;31;34627;-68
2024/01/13 06:50:58;;;;;;;19.50;15.15;;;;;;;-1.29;100.00;100857.53;5608828;31;34361;-69
2024/01/13 06:54:01;;;;;;;19.17;15.38;;;;;;;-1.18;100.00;100863.03;5608706;31;34421;-69
2024/01/13 06:57:04;;;;;;;20.05;15.82;;;;;;;-1.14;100.00;100869.75;5609145;31;35140;-69
2024/01/13 07:00:08;;;;;;;20.23;16.35;;;;;;;-1.10;100.00;100868.66;5609111;31;34417;-69
2024/01/13 07:03:11;;;;;;;20.77;15.23;;;;;;;-1.04;100.00;100868.34;5608748;31;35554;-70
2024/01/13 07:06:15;;;;;;;20.70;16.37;;;;;;;-0.93;100.00;100873.81;5608857;31;35036;-69
2024/01/13 07:09:17;;;;;;;21.52;16.92;;;;;;;-0.90;100.00;100875.41;5608668;31;34487;-69
2024/01/13 07:12:21;;;;;;;22.10;16.67;;;;;;;-0.84;100.00;100875.06;5608417;31;34326;-68
2024/01/13 07:15:24;;;;;;;22.08;17.02;;;;;;;-0.88;100.00;100874.41;5608582;31;34350;-69
2024/01/13 07:18:28;;;;;;;21.10;17.50;;;;;;;-0.80;100.00;100866.16;5607851;31;34557;-69
2024/01/13 07:21:31;;;;;;;20.90;16.98;;;;;;;-0.77;100.00;100860.78;5607629;31;34991;-69
2024/01/13 07:24:34;;;;;;;23.33;17.48;;;;;;;-0.76;100.00;100859.00;5608625;31;34354;-69
2024/01/13 07:27:37;;;;;;;24.42;18.12;;;;;;;-0.72;100.00;100857.91;5608431;31;35002;-69
2024/01/13 07:30:40;;;;;;;22.50;17.70;;;;;;;-0.67;100.00;100856.75;5608536;31;34713;-69
2024/01/13 07:33:43;;;;;;;24.92;18.92;;;;;;;-0.73;100.00;100856.25;5608449;31;34274;-69
2024/01/13 07:36:46;;;;;;;22.87;17.87;;;;;;;-0.76;100.00;100853.81;5608405;31;34269;-69
2024/01/13 07:39:50;;;;;;;30.60;19.40;;;;;;;-0.68;100.00;100851.63;5608358;31;34355;-69
2024/01/13 07:42:53;;;;;;;21.75;17.58;;;;;;;-0.60;100.00;100852.03;5608459;31;34404;-69
2024/01/13 07:45:57;;;;;;;22.90;17.77;;;;;;;-0.56;100.00;100851.78;5608312;31;35040;-69
2024/01/13 07:49:00;;;;;;;24.02;17.65;;;;;;;-0.55;100.00;100844.81;5608252;31;34458;-69
2024/01/13 07:52:03;;;;;;;24.25;18.75;;;;;;;-0.47;100.00;100848.66;5608641;31;34399;-69
2024/01/13 07:55:06;;;;;;;23.05;17.40;;;;;;;-0.56;100.00;100841.38;5608284;31;34708;-70
2024/01/13 07:58:09;;;;;;;23.80;18.83;;;;;;;-0.46;100.00;100842.53;5608278;31;34977;-70
2024/01/13 08:01:12;;;;;;;23.27;18.48;;;;;;;-0.38;100.00;100842.06;5608169;31;34975;-69
2024/01/13 08:04:29;;;;;;;22.55;17.70;;;;;;;-0.36;100.00;100836.78;5608432;31;34367;-69
2024/01/13 08:07:32;;;;;;;24.95;18.73;;;;;;;-0.25;100.00;100840.47;5607970;31;35062;-69
2024/01/13 08:10:38;;;;;;;27.20;19.20;;;;;;;-0.18;100.00;100839.19;5608340;31;34335;-70
2024/01/13 08:13:40;;;;;;;23.83;18.30;;;;;;;-0.20;100.00;100833.22;5607844;31;34483;-70
2024/01/13 08:16:44;;;;;;;28.23;19.05;;;;;;;-0.06;100.00;100832.44;5607390;31;34993;-69
2024/01/13 08:19:47;;;;;;;30.35;19.27;;;;;;;-0.05;100.00;100832.31;5606937;31;35194;-69
2024/01/13 08:22:50;;;;;;;28.48;19.48;;;;;;;0.05;100.00;100840.44;5606971;31;34203;-69
2024/01/13 08:25:53;;;;;;;28.25;19.40;;;;;;;-0.04;100.00;100841.81;5607717;31;34353;-70
2024/01/13 08:28:56;;;;;;;30.12;20.20;;;;;;;-0.09;100.00;100838.66;5607895;31;34488;-69
2024/01/13 08:32:00;;;;;;;30.98;20.60;;;;;;;-0.07;100.00;100846.38;5607493;31;34321;-70
2024/01/13 08:35:07;;;;;;;31.00;22.05;;;;;;;-0.08;100.00;100837.72;5607575;31;34519;-70
2024/01/13 08:38:11;;;;;;;35.60;23.15;;;;;;;-0.08;100.00;100845.53;5607466;31;34597;-70
2024/01/13 08:41:14;;;;;;;36.08;23.80;;;;;;;0.05;100.00;100842.25;5607201;31;34094;-69
2024/01/13 08:44:33;;;;;;;38.45;24.77;;;;;;;0.15;100.00;100848.56;5607821;31;35029;-72
2024/01/13 08:47:36;;;;;;;40.67;27.08;;;;;;;0.07;100.00;100841.19;5607158;31;35060;-71
2024/01/13 08:50:40;;;;;;;46.45;27.45;;;;;;;-0.13;100.00;100841.53;5607173;31;34297;-70
2024/01/13 08:53:45;;;;;;;48.05;28.05;;;;;;;-0.21;100.00;100841.13;5606389;31;35399;-70
2024/01/13 08:56:49;;;;;;;45.17;28.52;;;;;;;-0.06;100.00;100829.81;5607212;31;35042;-70
2024/01/13 08:59:52;;;;;;;48.40;29.60;;;;;;;0.00;100.00;100835.50;5607055;31;34273;-71
2024/01/13 09:02:55;;;;;;;52.22;30.92;;;;;;;-0.13;100.00;100836.31;5607380;31;34329;-70
2024/01/13 09:05:59;;;;;;;51.92;30.30;;;;;;;-0.09;100.00;100833.44;5606323;31;34314;-71
2024/01/13 09:09:02;;;;;;;45.80;27.40;;;;;;;-0.20;100.00;100816.75;5606896;31;34386;-70
2024/01/13 09:12:06;;;;;;;42.08;27.70;;;;;;;-0.08;100.00;100829.06;5606948;31;34635;-70
2024/01/13 09:15:10;;;;;;;45.45;28.12;;;;;;;0.02;100.00;100837.19;5606708;31;35133;-70
2024/01/13 09:18:14;;;;;;;43.20;27.45;;;;;;;-0.03;100.00;100827.03;5606294;31;35172;-69
2024/01/13 09:21:17;;;;;;;42.20;25.90;;;;;;;-0.05;100.00;100826.28;5605917;31;34915;-69
2024/01/13 09:24:41;;;;;;;43.58;27.48;;;;;;;-0.13;100.00;100841.53;5606669;31;35009;-71
2024/01/13 09:27:44;;;;;;;42.60;26.33;;;;;;;-0.16;100.00;100839.94;5606563;31;35168;-70
2024/01/13 09:30:47;;;;;;;39.40;26.05;;;;;;;-0.11;100.00;100843.13;5606434;31;34524;-70
2024/01/13 09:33:50;;;;;;;40.97;26.40;;;;;;;-0.08;100.00;100852.53;5606965;31;34482;-70
2024/01/13 09:36:55;;;;;;;42.08;25.73;;;;;;;-0.16;100.00;100849.53;5609249;31;34412;-70
2024/01/13 09:39:58;;;;;;;35.30;22.98;;;;;;;-0.08;100.00;100842.09;5608751;31;34360;-71
2024/01/13 09:43:08;;;;;;;34.90;22.98;;;;;;;-0.11;100.00;100827.47;5609018;31;34422;-71
2024/01/13 09:46:11;;;;;;;37.08;23.58;;;;;;;-0.14;100.00;100830.25;5609154;31;35108;-71
2024/01/13 09:49:17;;;;;;;40.42;23.90;;;;;;;0.02;100.00;100822.38;5608213;31;35004;-70
2024/01/13 09:52:21;;;;;;;35.53;21.92;;;;;;;-0.10;100.00;100823.09;5609182;31;35276;-70
2024/01/13 09:55:25;;;;;;;35.35;21.65;;;;;;;-0.12;100.00;100823.19;5609325;31;34405;-71
2024/01/13 09:58:29;;;;;;;36.58;22.05;;;;;;;-0.03;100.00;100813.97;5609168;31;34444;-70
2024/01/13 10:01:33;;;;;;;35.33;21.75;;;;;;;0.06;100.00;100818.66;5608965;31;35472;-70
2024/01/13 10:04:37;;;;;;;32.92;21.08;;;;;;;-0.09;100.00;100806.50;5609066;31;34294;-70
2024/01/13 10:07:49;;;;;;;36.50;21.75;;;;;;;-0.03;100.00;100803.56;5608977;31;34432;-71
2024/01/13 10:10:52;;;;;;;33.05;21.77;;;;;;;0.09;100.00;100812.44;5609001;31;34386;-70
2024/01/13 10:14:07;;;;;;;35.22;21.52;;;;;;;0.16;100.00;100798.91;5609291;31;35227;-71
2024/01/13 10:17:11;;;;;;;36.25;21.48;;;;;;;0.10;100.00;100803.69;5608887;31;34286;-71
2024/01/13 10:20:16;;;;;;;35.58;22.05;;;;;;;0.22;100.00;100795.94;5609065;31;34272;-70
2024/01/13 10:23:19;;;;;;;39.47;23.52;;;;;;;0.29;100.00;100793.81;5609111;31;34231;-70
2024/01/13 10:26:26;;;;;;;38.60;22.15;;;;;;;0.35;100.00;100789.06;5609080;31;35091;-70
2024/01/13 10:29:30;;;;;;;36.65;22.90;;;;;;;0.33;100.00;100785.72;5609095;31;34939;-71
2024/01/13 10:32:34;;;;;;;33.67;21.62;;;;;;;0.47;100.00;100776.19;5608836;31;34294;-70
2024/01/13 10:35:37;;;;;;;38.10;21.58;;;;;;;0.57;100.00;100779.94;5609059;31;34998;-70
2024/01/13 10:38:42;;;;;;;33.30;20.08;;;;;;;0.91;100.00;100771.66;5609028;31;34246;-70
2024/01/13 10:41:50;;;;;;;33.22;21.45;;;;;;;0.59;100.00;100771.06;5608957;31;35801;-70
2024/01/13 10:44:58;;;;;;;36.45;20.67;;;;;;;0.82;100.00;100773.06;5607998;31;34480;-70
2024/01/13 10:48:12;;;;;;;32.63;19.55;;;;;;;0.68;100.00;100774.84;5608569;31;34946;-71
2024/01/13 10:51:43;;;;;;;28.98;18.65;;;;;;;0.66;100.00;100771.53;5608877;31;35081;-71
2024/01/13 10:54:47;;;;;;;32.75;18.65;;;;;;;0.72;100.00;100763.31;5608924;31;34506;-71
2024/01/13 10:57:54;;;;;;;35.13;19.15;;;;;;;0.48;100.00;100757.84;5608938;31;34661;-72
2024/01/13 11:00:59;;;;;;;32.55;19.20;;;;;;;0.84;100.00;100760.75;5608786;31;34273;-71
2024/01/13 11:04:04;;;;;;;27.98;18.15;;;;;;;0.96;100.00;100758.31;5608840;31;34403;-71
2024/01/13 11:07:07;;;;;;;26.80;16.42;;;;;;;0.96;100.00;100743.47;5608741;31;35117;-71
2024/01/13 11:10:25;;;;;;;24.70;15.63;;;;;;;1.32;100.00;100737.63;5608643;31;34454;-71
2024/01/13 11:13:52;;;;;;;24.80;14.45;;;;;;;1.30;100.00;100744.75;5607944;31;34420;-72
2024/01/13 11:16:56;;;;;;;25.05;14.93;;;;;;;1.24;100.00;100719.88;5608624;31;35100;-70
2024/01/13 11:20:00;;;;;;;22.52;13.80;;;;;;;1.34;100.00;100724.47;5608626;31;34517;-72
2024/01/13 11:23:04;;;;;;;20.88;13.77;;;;;;;1.38;100.00;100703.25;5608520;31;35033;-71
2024/01/13 11:26:09;;;;;;;20.88;13.48;;;;;;;1.20;100.00;100707.09;5608763;31;35091;-72
2024/01/13 11:29:17;;;;;;;22.27;14.02;;;;;;;1.20;100.00;100707.94;5608662;31;34414;-72
2024/01/13 11:32:20;;;;;;;25.88;14.63;;;;;;;1.37;100.00;100716.44;5608112;31;35378;-71
2024/01/13 11:35:24;;;;;;;23.58;14.32;;;;;;;1.26;100.00;100704.91;5608613;31;35288;-72
2024/01/13 11:38:32;;;;;;;20.12;13.52;;;;;;;1.17;100.00;100708.13;5608713;31;34359;-72
2024/01/13 11:41:40;;;;;;;21.42;14.25;;;;;;;1.24;100.00;100701.56;5608935;31;34209;-71
2024/01/13 11:44:49;;;;;;;19.87;13.10;;;;;;;1.51;100.00;100698.88;5608400;31;35004;-72
2024/01/13 11:47:52;;;;;;;20.00;13.13;;;;;;;1.64;100.00;100686.69;5608441;31;34314;-72
2024/01/13 11:50:55;;;;;;;21.08;13.57;;;;;;;1.49;100.00;100689.50;5608708;31;34962;-72
2024/01/13 11:53:59;;;;;;;22.35;13.32;;;;;;;1.19;100.00;100687.13;5608392;31;34372;-72
2024/01/13 11:57:10;;;;;;;21.08;14.25;;;;;;;1.09;100.00;100684.28;5607417;31;35053;-72
2024/01/13 12:00:14;;;;;;;22.98;13.48;;;;;;;1.00;100.00;100679.66;5608118;31;34334;-71
2024/01/13 12:03:17;;;;;;;22.02;13.55;;;;;;;0.99;100.00;100672.75;5607541;31;33262;-72
2024/01/13 12:06:20;;;;;;;18.83;12.27;;;;;;;0.85;100.00;100663.19;5607543;31;35019;-73
2024/01/13 12:09:26;;;;;;;20.23;13.45;;;;;;;0.84;100.00;100660.69;5608108;31;34888;-72
2024/01/13 12:12:29;;;;;;;20.37;12.95;;;;;;;0.76;100.00;100660.34;5608457;31;34383;-72
2024/01/13 12:15:33;;;;;;;19.62;12.70;;;;;;;1.21;100.00;100659.94;5607434;31;34352;-71
2024/01/13 12:18:36;;;;;;;20.58;12.73;;;;;;;1.33;100.00;100640.00;5608302;31;34388;-72
2024/01/13 12:21:40;;;;;;;20.85;12.45;;;;;;;1.39;100.00;100646.59;5608002;31;34321;-72
2024/01/13 12:24:45;;;;;;;22.00;12.93;;;;;;;1.06;100.00;100647.06;5607973;31;35113;-71
2024/01/13 12:27:48;;;;;;;21.80;13.60;;;;;;;1.05;100.00;100648.00;5608148;31;34225;-71
2024/01/13 12:30:54;;;;;;;20.55;12.73;;;;;;;1.11;100.00;100642.38;5608054;31;34221;-72
2024/01/13 12:34:15;;;;;;;19.50;13.02;;;;;;;1.13;100.00;100633.50;5607813;31;34356;-70
2024/01/13 12:37:18;;;;;;;18.55;12.15;;;;;;;0.88;100.00;100631.66;5607729;31;34361;-71
2024/01/13 12:40:21;;;;;;;17.87;11.85;;;;;;;1.01;100.00;100628.25;5607963;31;34434;-71
2024/01/13 12:43:25;;;;;;;18.62;12.82;;;;;;;0.79;100.00;100624.41;5607351;31;34961;-72
2024/01/13 12:46:28;;;;;;;18.25;12.23;;;;;;;0.88;100.00;100626.44;5607959;31;34541;-72
2024/01/13 12:49:35;;;;;;;16.02;10.95;;;;;;;0.97;100.00;100637.22;5606848;31;34387;-71
2024/01/13 12:52:40;;;;;;;16.95;11.85;;;;;;;0.91;100.00;100637.63;5607694;31;34350;-73
2024/01/13 12:55:42;;;;;;;15.57;11.15;;;;;;;0.83;100.00;100631.09;5607650;31;35182;-73
2024/01/13 12:58:46;;;;;;;19.23;11.30;;;;;;;0.73;100.00;100637.03;5607842;31;34558;-72
2024/01/13 13:01:49;;;;;;;16.50;10.93;;;;;;;0.97;100.00;100632.00;5607347;31;34406;-72
2024/01/13 13:04:52;;;;;;;18.58;11.25;;;;;;;1.00;100.00;100623.94;5607228;31;35009;-71
2024/01/13 13:08:13;;;;;;;18.98;10.80;;;;;;;0.95;100.00;100629.47;5606507;31;35032;-72
2024/01/13 13:11:17;;;;;;;14.75;10.25;;;;;;;0.94;100.00;100627.81;5609500;31;34413;-74
2024/01/13 13:14:20;;;;;;;15.65;9.20;;;;;;;0.90;100.00;100623.72;5608844;31;34998;-71
2024/01/13 13:17:24;;;;;;;18.58;9.70;;;;;;;1.07;100.00;100631.28;5609915;31;34313;-71
2024/01/13 13:20:27;;;;;;;14.38;8.90;;;;;;;1.11;100.00;100629.31;5609606;31;34337;-71
2024/01/13 13:23:30;;;;;;;13.05;7.20;;;;;;;1.14;100.00;100621.25;5609853;31;34352;-75
2024/01/13 13:26:35;;;;;;;10.75;7.10;;;;;;;1.30;100.00;100620.16;5595628;31;34785;-71
2024/01/13 13:29:39;;;;;;;7.68;4.97;;;;;;;1.48;100.00;100627.69;5609521;31;34227;-71
2024/01/13 13:32:42;;;;;;;7.32;4.78;;;;;;;1.49;100.00;100624.97;5609663;31;34414;-72
2024/01/13 13:35:46;;;;;;;6.28;4.70;;;;;;;1.37;100.00;100617.09;5609882;31;34360;-71
2024/01/13 13:38:49;;;;;;;5.95;4.43;;;;;;;1.31;100.00;100615.72;5609747;31;35290;-72
2024/01/13 13:41:52;;;;;;;8.35;4.72;;;;;;;1.15;100.00;100604.66;5609461;31;35347;-71
2024/01/13 13:44:55;;;;;;;6.72;4.93;;;;;;;1.28;100.00;100603.72;5608745;31;34369;-73
2024/01/13 13:48:11;;;;;;;8.50;5.60;;;;;;;1.30;100.00;100604.47;5609071;31;35376;-72
2024/01/13 13:51:14;;;;;;;7.70;5.00;;;;;;;1.34;100.00;100606.87;5609353;31;34885;-71
2024/01/13 13:54:18;;;;;;;7.40;5.60;;;;;;;1.32;100.00;100588.66;5609174;31;34335;-72